createdAt,value
2023-02-26T00:01:47.274Z,98954.00
2023-02-26T00:04:15.471Z,98968.00
2023-02-26T00:06:53.685Z,98962.00
2023-02-26T00:09:24.914Z,98977.00
2023-02-26T00:11:53.350Z,98933.00
2023-02-26T00:14:23.090Z,98981.00
2023-02-26T00:17:10.363Z,98978.00
2023-02-26T00:19:38.964Z,98982.00
2023-02-26T00:22:07.642Z,98980.00
2023-02-26T00:24:35.533Z,98996.00
2023-02-26T00:27:03.433Z,98990.00
2023-02-26T00:29:33.736Z,99003.00
2023-02-26T00:32:02.527Z,98992.00
2023-02-26T00:34:31.471Z,98986.00
2023-02-26T00:37:14.121Z,99002.00
2023-02-26T00:39:56.196Z,99011.00
2023-02-26T00:42:25.576Z,99009.00
2023-02-26T00:44:55.489Z,99001.00
2023-02-26T00:47:33.269Z,98992.00
2023-02-26T00:50:16.789Z,99011.00
2023-02-26T00:52:55.453Z,99010.00
2023-02-26T00:55:23.546Z,99002.00
2023-02-26T00:57:51.478Z,99013.00
2023-02-26T01:00:22.739Z,99011.00
2023-02-26T01:02:51.865Z,98980.00
2023-02-26T01:05:22.204Z,99020.00
2023-02-26T01:08:02.933Z,99023.00
2023-02-26T01:10:31.705Z,99013.00
2023-02-26T01:13:00.574Z,99016.00
2023-02-26T01:15:31.330Z,99015.00
2023-02-26T01:18:08.637Z,99023.00
2023-02-26T01:20:46.310Z,99023.00
2023-02-26T01:23:17.415Z,99022.00
2023-02-26T01:25:52.129Z,99026.00
2023-02-26T01:28:20.642Z,99027.00
2023-02-26T01:30:51.940Z,99024.00
2023-02-26T01:33:28.585Z,99021.00
2023-02-26T01:36:04.528Z,99033.00
2023-02-26T01:38:46.000Z,99037.00
2023-02-26T01:41:29.603Z,99033.00
2023-02-26T01:44:24.648Z,99030.00
2023-02-26T01:47:15.200Z,99039.00
2023-02-26T01:49:44.074Z,99044.00
2023-02-26T01:53:00.644Z,99038.00
2023-02-26T01:55:30.795Z,99047.00
2023-02-26T01:58:02.616Z,99059.00
2023-02-26T02:00:32.496Z,99053.00
2023-02-26T02:03:03.107Z,99056.00
2023-02-26T02:05:40.175Z,99055.00
2023-02-26T02:08:09.194Z,99059.00
2023-02-26T02:10:37.165Z,99066.00
2023-02-26T02:13:19.074Z,99074.00
2023-02-26T02:16:05.778Z,99067.00
2023-02-26T02:18:47.260Z,99063.00
2023-02-26T02:21:46.418Z,99068.00
2023-02-26T02:24:23.622Z,99074.00
2023-02-26T02:27:05.497Z,99080.00
2023-02-26T02:30:13.595Z,99086.00
2023-02-26T02:32:50.525Z,99081.00
2023-02-26T02:35:25.453Z,99081.00
2023-02-26T02:38:06.604Z,99091.00
2023-02-26T02:40:39.824Z,99089.00
2023-02-26T02:43:14.134Z,99094.00
2023-02-26T02:45:49.177Z,99094.00
2023-02-26T02:48:25.360Z,99041.00
2023-02-26T02:51:00.333Z,99097.00
2023-02-26T02:53:37.289Z,99108.00
2023-02-26T02:56:11.796Z,99106.00
2023-02-26T02:58:45.538Z,99113.00
2023-02-26T03:01:19.568Z,99108.00
2023-02-26T03:03:58.938Z,99069.00
2023-02-26T03:06:27.114Z,99122.00
2023-02-26T03:08:55.421Z,99128.00
2023-02-26T03:11:23.399Z,99135.00
2023-02-26T03:13:53.568Z,99140.00
2023-02-26T03:16:50.887Z,99120.00
2023-02-26T03:19:32.448Z,99141.00
2023-02-26T03:22:08.360Z,99126.00
2023-02-26T03:25:05.569Z,99156.00
2023-02-26T03:27:45.256Z,99155.00
2023-02-26T03:30:21.699Z,99149.00
2023-02-26T03:33:00.229Z,99172.00
2023-02-26T03:35:37.164Z,99153.00
2023-02-26T03:38:12.700Z,99188.00
2023-02-26T03:40:48.774Z,99183.00
2023-02-26T03:43:24.638Z,99175.00
2023-02-26T03:45:59.865Z,99172.00
2023-02-26T03:48:32.388Z,99202.00
2023-02-26T03:51:06.689Z,99206.00
2023-02-26T03:53:41.316Z,99210.00
2023-02-26T03:56:22.744Z,99205.00
2023-02-26T03:59:08.019Z,99202.00
2023-02-26T04:02:06.397Z,99204.00
2023-02-26T04:04:45.563Z,99225.00
2023-02-26T04:07:18.393Z,99223.00
2023-02-26T04:09:50.132Z,99226.00
2023-02-26T04:12:23.853Z,99230.00
2023-02-26T04:14:54.204Z,99192.00
2023-02-26T04:17:22.231Z,99227.00
2023-02-26T04:19:50.516Z,99192.00
2023-02-26T04:22:20.558Z,99155.00
2023-02-26T04:24:48.457Z,99240.00
2023-02-26T04:27:18.298Z,99243.00
2023-02-26T04:29:46.201Z,99243.00
2023-02-26T04:32:14.286Z,99254.00
2023-02-26T04:34:42.489Z,99262.00
2023-02-26T04:37:11.620Z,99262.00
2023-02-26T04:39:41.027Z,99275.00
2023-02-26T04:42:09.793Z,99280.00
2023-02-26T04:44:38.145Z,99271.00
2023-02-26T04:47:06.158Z,99278.00
2023-02-26T04:49:35.995Z,99283.00
2023-02-26T04:52:03.990Z,99277.00
2023-02-26T04:54:32.170Z,99297.00
2023-02-26T04:57:01.769Z,99293.00
2023-02-26T04:59:29.753Z,99294.00
2023-02-26T05:01:59.025Z,99292.00
2023-02-26T05:04:27.115Z,99290.00
2023-02-26T05:06:59.165Z,99305.00
2023-02-26T05:09:27.100Z,99314.00
2023-02-26T05:11:55.020Z,99314.00
2023-02-26T05:14:25.005Z,99312.00
2023-02-26T05:16:52.934Z,99325.00
2023-02-26T05:19:20.822Z,99320.00
2023-02-26T05:21:50.755Z,99214.00
2023-02-26T05:24:18.839Z,99330.00
2023-02-26T05:26:46.853Z,99326.00
2023-02-26T05:29:15.052Z,99306.00
2023-02-26T05:31:44.437Z,99340.00
2023-02-26T05:34:12.545Z,99296.00
2023-02-26T05:36:40.478Z,99347.00
2023-02-26T05:39:08.382Z,99345.00
2023-02-26T05:41:36.269Z,99348.00
2023-02-26T05:44:04.272Z,99348.00
2023-02-26T05:46:32.234Z,99351.00
2023-02-26T05:49:01.534Z,99370.00
2023-02-26T05:51:29.433Z,99375.00
2023-02-26T05:53:57.330Z,99372.00
2023-02-26T05:56:25.447Z,99381.00
2023-02-26T05:58:53.424Z,99387.00
2023-02-26T06:01:21.443Z,99388.00
2023-02-26T06:03:49.345Z,99400.00
2023-02-26T06:06:18.746Z,99408.00
2023-02-26T06:08:47.111Z,99400.00
2023-02-26T06:11:15.614Z,99416.00
2023-02-26T06:13:43.476Z,99417.00
2023-02-26T06:16:11.366Z,99426.00
2023-02-26T06:18:39.243Z,99435.00
2023-02-26T06:21:07.360Z,99432.00
2023-02-26T06:23:36.621Z,99446.00
2023-02-26T06:26:05.146Z,99374.00
2023-02-26T06:28:33.633Z,99443.00
2023-02-26T06:31:01.569Z,99448.00
2023-02-26T06:33:29.711Z,99446.00
2023-02-26T06:36:00.161Z,99444.00
2023-02-26T06:38:28.642Z,99452.00
2023-02-26T06:40:58.048Z,99444.00
2023-02-26T06:43:25.953Z,99461.00
2023-02-26T06:45:53.835Z,99472.00
2023-02-26T06:48:21.943Z,99471.00
2023-02-26T06:50:49.845Z,99474.00
2023-02-26T06:53:17.745Z,99477.00
2023-02-26T06:55:46.932Z,99433.00
2023-02-26T06:58:16.147Z,99494.00
2023-02-26T07:00:44.241Z,99482.00
2023-02-26T07:03:15.552Z,99491.00
2023-02-26T07:05:43.967Z,99498.00
2023-02-26T07:08:12.039Z,99513.00
2023-02-26T07:10:41.101Z,99511.00
2023-02-26T07:13:09.649Z,99463.00
2023-02-26T07:15:38.914Z,99518.00
2023-02-26T07:18:06.904Z,99526.00
2023-02-26T07:20:35.204Z,99531.00
2023-02-26T07:23:03.245Z,99523.00
2023-02-26T07:25:31.145Z,99522.00
2023-02-26T07:27:59.983Z,99541.00
2023-02-26T07:30:28.458Z,99535.00
2023-02-26T07:32:58.273Z,99548.00
2023-02-26T07:35:26.260Z,99550.00
2023-02-26T07:37:54.158Z,99541.00
2023-02-26T07:40:22.055Z,99542.00
2023-02-26T07:42:49.983Z,99563.00
2023-02-26T07:45:22.245Z,99557.00
2023-02-26T07:47:50.576Z,99562.00
2023-02-26T07:50:20.912Z,99561.00
2023-02-26T07:52:48.983Z,99567.00
2023-02-26T07:55:17.052Z,99564.00
2023-02-26T07:57:44.958Z,99570.00
2023-02-26T08:00:15.046Z,99578.00
2023-02-26T08:02:43.307Z,99557.00
2023-02-26T08:05:11.941Z,99534.00
2023-02-26T08:07:41.170Z,99571.00
2023-02-26T08:10:11.804Z,99581.00
2023-02-26T08:12:39.690Z,99585.00
2023-02-26T08:15:08.911Z,99577.00
2023-02-26T08:17:36.801Z,99590.00
2023-02-26T08:20:05.811Z,99592.00
2023-02-26T08:22:33.870Z,99603.00
2023-02-26T08:25:03.115Z,99599.00
2023-02-26T08:27:31.283Z,99603.00
2023-02-26T08:29:59.223Z,99607.00
2023-02-26T08:32:28.242Z,99620.00
2023-02-26T08:34:56.406Z,99609.00
2023-02-26T08:37:24.397Z,99605.00
2023-02-26T08:39:52.446Z,99582.00
2023-02-26T08:42:21.691Z,99626.00
2023-02-26T08:44:49.669Z,99627.00
2023-02-26T08:47:28.191Z,99627.00
2023-02-26T08:49:56.919Z,99644.00
2023-02-26T08:52:24.821Z,99636.00
2023-02-26T08:54:53.318Z,99638.00
2023-02-26T08:57:22.591Z,99646.00
2023-02-26T08:59:50.526Z,99648.00
2023-02-26T09:02:18.729Z,99661.00
2023-02-26T09:04:47.288Z,99664.00
2023-02-26T09:07:15.485Z,99665.00
2023-02-26T09:09:43.340Z,99676.00
2023-02-26T09:12:11.217Z,99689.00
2023-02-26T09:14:40.466Z,99678.00
2023-02-26T09:17:08.333Z,99684.00
2023-02-26T09:19:36.335Z,99690.00
2023-02-26T09:22:06.103Z,99700.00
2023-02-26T09:24:34.271Z,99702.00
2023-02-26T09:27:03.593Z,99701.00
2023-02-26T09:29:31.509Z,99713.00
2023-02-26T09:32:00.895Z,99719.00
2023-02-26T09:34:28.898Z,99722.00
2023-02-26T09:36:56.853Z,99725.00
2023-02-26T09:39:25.240Z,99727.00
2023-02-26T09:41:58.582Z,99724.00
2023-02-26T09:44:29.266Z,99720.00
2023-02-26T09:47:08.215Z,99730.00
2023-02-26T09:49:51.805Z,99741.00
2023-02-26T09:52:26.493Z,99733.00
2023-02-26T09:55:01.039Z,99733.00
2023-02-26T09:57:33.470Z,99736.00
2023-02-26T10:00:02.980Z,99738.00
2023-02-26T10:02:54.008Z,99732.00
2023-02-26T10:05:32.550Z,99736.00
2023-02-26T10:08:06.767Z,99754.00
2023-02-26T10:10:46.096Z,99759.00
2023-02-26T10:13:28.257Z,99756.00
2023-02-26T10:16:05.427Z,99764.00
2023-02-26T10:18:42.330Z,99760.00
2023-02-26T10:21:16.284Z,99770.00
2023-02-26T10:23:51.279Z,99763.00
2023-02-26T10:26:24.752Z,99772.00
2023-02-26T10:29:03.683Z,99776.00
2023-02-26T10:31:39.721Z,99775.00
2023-02-26T10:34:24.076Z,99776.00
2023-02-26T10:37:00.437Z,99782.00
2023-02-26T10:39:34.338Z,99781.00
2023-02-26T10:42:12.257Z,99789.00
2023-02-26T10:44:50.536Z,99792.00
2023-02-26T10:47:32.663Z,99797.00
2023-02-26T10:50:05.618Z,99788.00
2023-02-26T10:52:36.992Z,99808.00
2023-02-26T10:55:26.208Z,99792.00
2023-02-26T10:58:04.284Z,99791.00
2023-02-26T11:00:35.365Z,99795.00
2023-02-26T11:03:05.846Z,99798.00
2023-02-26T11:05:37.120Z,99764.00
2023-02-26T11:08:14.641Z,99788.00
2023-02-26T11:10:49.793Z,99750.00
2023-02-26T11:13:17.799Z,99818.00
2023-02-26T11:15:51.287Z,99753.00
2023-02-26T11:18:24.374Z,99822.00
2023-02-26T11:20:58.831Z,99826.00
2023-02-26T11:23:31.171Z,99820.00
2023-02-26T11:26:06.745Z,99797.00
2023-02-26T11:28:43.964Z,99817.00
2023-02-26T11:31:16.345Z,99823.00
2023-02-26T11:33:50.436Z,99822.00
2023-02-26T11:36:22.863Z,99825.00
2023-02-26T11:38:56.705Z,99826.00
2023-02-26T11:41:26.718Z,99829.00
2023-02-26T11:44:03.779Z,99826.00
2023-02-26T11:46:32.609Z,99836.00
2023-02-26T11:49:02.771Z,99832.00
2023-02-26T11:51:31.975Z,99835.00
2023-02-26T11:54:02.214Z,99845.00
2023-02-26T11:56:39.047Z,99831.00
2023-02-26T11:59:16.812Z,99848.00
2023-02-26T12:01:44.774Z,99840.00
2023-02-26T12:04:20.111Z,99838.00
2023-02-26T12:06:53.972Z,99831.00
2023-02-26T12:09:22.938Z,99841.00
2023-02-26T12:12:08.688Z,99838.00
2023-02-26T12:15:09.028Z,99840.00
2023-02-26T12:17:55.837Z,99779.00
2023-02-26T12:20:33.109Z,99841.00
2023-02-26T12:23:34.233Z,99841.00
2023-02-26T12:26:23.518Z,99839.00
2023-02-26T12:29:23.919Z,99842.00
2023-02-26T12:32:23.776Z,99845.00
2023-02-26T12:35:16.733Z,99811.00
2023-02-26T12:38:06.191Z,99798.00
2023-02-26T12:41:31.053Z,99835.00
2023-02-26T12:44:10.134Z,99839.00
2023-02-26T12:47:03.460Z,99846.00
2023-02-26T12:49:54.372Z,99856.00
2023-02-26T12:53:20.030Z,99845.00
2023-02-26T12:56:05.810Z,99858.00
2023-02-26T12:58:55.606Z,99853.00
2023-02-26T13:02:25.803Z,99863.00
2023-02-26T13:05:24.978Z,99852.00
2023-02-26T13:08:09.370Z,99849.00
2023-02-26T13:10:54.315Z,99866.00
2023-02-26T13:13:52.705Z,99875.00
2023-02-26T13:16:36.627Z,99873.00
2023-02-26T13:19:29.670Z,99876.00
2023-02-26T13:22:03.835Z,99878.00
2023-02-26T13:24:41.205Z,99870.00
2023-02-26T13:27:13.618Z,99870.00
2023-02-26T13:29:49.215Z,99868.00
2023-02-26T13:32:24.263Z,99856.00
2023-02-26T13:34:58.824Z,99886.00
2023-02-26T13:37:32.019Z,99828.00
2023-02-26T13:40:36.662Z,99881.00
2023-02-26T13:43:17.092Z,99885.00
2023-02-26T13:45:57.265Z,99833.00
2023-02-26T13:48:42.334Z,99881.00
2023-02-26T13:51:25.456Z,99889.00
2023-02-26T13:54:00.112Z,99884.00
2023-02-26T13:56:53.577Z,99876.00
2023-02-26T13:59:48.124Z,99889.00
2023-02-26T14:02:54.749Z,99895.00
2023-02-26T14:05:55.840Z,99896.00
2023-02-26T14:08:52.716Z,99894.00
2023-02-26T14:11:47.121Z,99904.00
2023-02-26T14:14:40.449Z,99909.00
2023-02-26T14:17:49.017Z,99906.00
2023-02-26T14:20:25.697Z,99890.00
2023-02-26T14:23:13.966Z,99899.00
2023-02-26T14:25:49.120Z,99908.00
2023-02-26T14:28:36.063Z,99892.00
2023-02-26T14:31:18.135Z,99901.00
2023-02-26T14:33:59.509Z,99896.00
2023-02-26T14:36:36.522Z,99919.00
2023-02-26T14:39:10.836Z,99911.00
2023-02-26T14:41:42.420Z,99920.00
2023-02-26T14:44:21.415Z,99925.00
2023-02-26T14:46:52.079Z,99922.00
2023-02-26T14:49:28.826Z,99928.00
2023-02-26T14:52:29.712Z,99925.00
2023-02-26T14:55:19.889Z,99933.00
2023-02-26T14:58:04.472Z,99930.00
2023-02-26T15:00:47.237Z,99897.00
2023-02-26T15:03:50.371Z,99930.00
2023-02-26T15:06:45.675Z,99951.00
2023-02-26T15:09:23.173Z,99929.00
2023-02-26T15:12:17.096Z,99931.00
2023-02-26T15:15:05.131Z,99930.00
2023-02-26T15:17:53.202Z,99927.00
2023-02-26T15:20:34.611Z,99936.00
2023-02-26T15:23:25.019Z,99943.00
2023-02-26T15:25:53.012Z,99934.00
2023-02-26T15:28:27.730Z,99917.00
2023-02-26T15:31:00.412Z,99927.00
2023-02-26T15:33:30.108Z,99940.00
2023-02-26T15:36:00.892Z,99933.00
2023-02-26T15:38:29.098Z,99932.00
2023-02-26T15:41:03.873Z,99930.00
2023-02-26T15:43:32.344Z,99943.00
2023-02-26T15:46:03.495Z,99937.00
2023-02-26T15:48:38.059Z,99936.00
2023-02-26T15:51:09.809Z,99941.00
2023-02-26T15:53:43.320Z,99954.00
2023-02-26T15:56:19.567Z,99950.00
2023-02-26T15:58:53.994Z,99952.00
2023-02-26T16:01:26.315Z,99950.00
2023-02-26T16:03:58.377Z,99956.00
2023-02-26T16:06:30.741Z,99948.00
2023-02-26T16:09:00.568Z,99958.00
2023-02-26T16:11:34.120Z,99965.00
2023-02-26T16:14:04.533Z,99972.00
2023-02-26T16:16:43.232Z,99973.00
2023-02-26T16:19:16.208Z,99970.00
2023-02-26T16:21:45.892Z,99972.00
2023-02-26T16:24:21.217Z,99973.00
2023-02-26T16:26:56.129Z,99974.00
2023-02-26T16:29:28.973Z,99983.00
2023-02-26T16:32:03.012Z,99985.00
2023-02-26T16:34:38.577Z,99983.00
2023-02-26T16:37:25.864Z,99988.00
2023-02-26T16:39:58.081Z,99988.00
2023-02-26T16:42:46.388Z,99988.00
2023-02-26T16:45:26.758Z,99995.00
2023-02-26T16:48:00.356Z,100002.00
2023-02-26T16:50:33.290Z,100015.00
2023-02-26T16:53:15.799Z,100024.00
2023-02-26T16:55:50.787Z,100020.00
2023-02-26T16:58:21.848Z,100036.00
2023-02-26T17:00:59.016Z,100047.00
2023-02-26T17:03:30.949Z,100032.00
2023-02-26T17:06:02.981Z,100035.00
2023-02-26T17:08:36.398Z,100050.00
2023-02-26T17:11:08.772Z,100059.00
2023-02-26T17:13:38.268Z,100050.00
2023-02-26T17:16:12.253Z,100051.00
2023-02-26T17:18:41.544Z,100057.00
2023-02-26T17:21:11.086Z,100063.00
2023-02-26T17:23:40.077Z,100055.00
2023-02-26T17:26:09.107Z,100058.00
2023-02-26T17:28:42.626Z,100063.00
2023-02-26T17:31:12.654Z,100065.00
2023-02-26T17:33:45.324Z,100053.00
2023-02-26T17:36:18.714Z,100063.00
2023-02-26T17:38:47.581Z,100065.00
2023-02-26T17:41:18.923Z,100023.00
2023-02-26T17:43:46.860Z,100069.00
2023-02-26T17:46:14.814Z,100083.00
2023-02-26T17:48:43.997Z,100083.00
2023-02-26T17:51:15.136Z,100088.00
2023-02-26T17:53:46.478Z,100105.00
2023-02-26T17:56:25.825Z,100098.00
2023-02-26T17:58:55.212Z,100103.00
2023-02-26T18:01:24.376Z,100051.00
2023-02-26T18:03:54.601Z,100111.00
2023-02-26T18:06:24.349Z,100062.00
2023-02-26T18:08:52.456Z,100104.00
2023-02-26T18:11:23.786Z,100122.00
2023-02-26T18:13:52.258Z,100124.00
2023-02-26T18:16:23.546Z,100132.00
2023-02-26T18:18:54.027Z,100128.00
2023-02-26T18:21:21.962Z,100067.00
2023-02-26T18:23:50.027Z,100139.00
2023-02-26T18:26:22.833Z,100089.00
2023-02-26T18:28:51.785Z,100137.00
2023-02-26T18:31:20.310Z,100135.00
2023-02-26T18:33:48.796Z,100144.00
2023-02-26T18:36:29.718Z,100146.00
2023-02-26T18:39:01.348Z,100151.00
2023-02-26T18:41:30.132Z,100144.00
2023-02-26T18:43:58.020Z,100154.00
2023-02-26T18:46:26.977Z,100160.00
2023-02-26T18:48:55.074Z,100169.00
2023-02-26T18:51:24.814Z,100159.00
2023-02-26T18:53:53.066Z,100173.00
2023-02-26T18:56:21.046Z,100170.00
2023-02-26T18:58:48.935Z,100172.00
2023-02-26T19:01:16.838Z,100180.00
2023-02-26T19:03:44.768Z,100169.00
2023-02-26T19:06:12.726Z,100192.00
2023-02-26T19:08:41.957Z,100189.00
2023-02-26T19:11:09.854Z,100181.00
2023-02-26T19:13:38.225Z,100194.00
2023-02-26T19:16:06.967Z,100195.00
2023-02-26T19:18:34.953Z,100203.00
2023-02-26T19:21:04.670Z,100197.00
2023-02-26T19:23:32.661Z,100195.00
2023-02-26T19:26:01.875Z,100199.00
2023-02-26T19:28:29.773Z,100211.00
2023-02-26T19:30:57.813Z,100214.00
2023-02-26T19:33:26.144Z,100217.00
2023-02-26T19:35:54.087Z,100216.00
2023-02-26T19:38:23.449Z,100217.00
2023-02-26T19:40:52.070Z,100220.00
2023-02-26T19:43:23.269Z,100231.00
2023-02-26T19:45:51.200Z,100231.00
2023-02-26T19:48:21.058Z,100235.00
2023-02-26T19:50:51.240Z,100232.00
2023-02-26T19:53:19.463Z,100232.00
2023-02-26T19:55:47.500Z,100243.00
2023-02-26T19:58:15.402Z,100241.00
2023-02-26T20:00:44.665Z,100276.00
2023-02-26T20:03:13.157Z,100252.00
2023-02-26T20:05:41.023Z,100254.00
2023-02-26T20:08:08.940Z,100254.00
2023-02-26T20:10:36.902Z,100263.00
2023-02-26T20:13:04.996Z,100265.00
2023-02-26T20:15:33.269Z,100261.00
2023-02-26T20:18:02.479Z,100270.00
2023-02-26T20:20:30.341Z,100277.00
2023-02-26T20:22:58.287Z,100278.00
2023-02-26T20:25:26.321Z,100278.00
2023-02-26T20:27:54.231Z,100284.00
2023-02-26T20:30:22.620Z,100274.00
2023-02-26T20:32:50.645Z,100286.00
2023-02-26T20:35:20.300Z,100288.00
2023-02-26T20:37:48.963Z,100285.00
2023-02-26T20:40:16.881Z,100294.00
2023-02-26T20:42:44.744Z,100298.00
2023-02-26T20:45:13.014Z,100295.00
2023-02-26T20:47:40.972Z,100296.00
2023-02-26T20:50:10.654Z,100294.00
2023-02-26T20:52:39.975Z,100246.00
2023-02-26T20:55:09.125Z,100296.00
2023-02-26T20:57:37.013Z,100300.00
2023-02-26T21:00:11.014Z,100292.00
2023-02-26T21:02:39.660Z,100288.00
2023-02-26T21:05:10.052Z,100300.00
2023-02-26T21:07:39.989Z,100306.00
2023-02-26T21:10:11.090Z,100306.00
2023-02-26T21:12:39.606Z,100310.00
2023-02-26T21:15:10.797Z,100137.00
2023-02-26T21:17:40.834Z,100313.00
2023-02-26T21:20:11.887Z,100313.00
2023-02-26T21:22:41.402Z,100323.00
2023-02-26T21:25:11.286Z,100322.00
2023-02-26T21:27:39.755Z,100323.00
2023-02-26T21:30:10.860Z,100309.00
2023-02-26T21:32:39.157Z,100320.00
2023-02-26T21:35:10.937Z,100315.00
2023-02-26T21:37:39.077Z,100315.00
2023-02-26T21:40:10.653Z,100336.00
2023-02-26T21:42:38.608Z,100335.00
2023-02-26T21:45:07.749Z,100334.00
2023-02-26T21:47:35.767Z,100339.00
2023-02-26T21:50:03.860Z,100337.00
2023-02-26T21:52:31.739Z,100340.00
2023-02-26T21:54:59.856Z,100346.00
2023-02-26T21:57:29.279Z,100345.00
2023-02-26T21:59:57.218Z,100345.00
2023-02-26T22:02:25.494Z,100289.00
2023-02-26T22:04:53.415Z,100342.00
2023-02-26T22:07:21.476Z,100353.00
2023-02-26T22:09:49.866Z,100347.00
2023-02-26T22:12:18.161Z,100296.00
2023-02-26T22:14:49.128Z,100355.00
2023-02-26T22:17:17.110Z,100350.00
2023-02-26T22:19:45.068Z,100355.00
2023-02-26T22:22:13.045Z,100358.00
2023-02-26T22:24:41.312Z,100361.00
2023-02-26T22:27:09.428Z,100357.00
2023-02-26T22:29:39.138Z,100360.00
2023-02-26T22:32:08.447Z,100354.00
2023-02-26T22:34:36.767Z,100360.00
2023-02-26T22:37:05.072Z,100362.00
2023-02-26T22:39:33.232Z,100368.00
2023-02-26T22:42:01.194Z,100370.00
2023-02-26T22:44:29.315Z,100375.00
2023-02-26T22:46:57.236Z,100375.00
2023-02-26T22:49:26.933Z,100380.00
2023-02-26T22:51:54.803Z,100385.00
2023-02-26T22:54:22.826Z,100379.00
2023-02-26T22:56:50.825Z,100377.00
2023-02-26T22:59:18.741Z,100371.00
2023-02-26T23:01:46.622Z,100366.00
2023-02-26T23:04:14.647Z,100366.00
2023-02-26T23:06:43.884Z,100375.00
2023-02-26T23:09:11.709Z,100378.00
2023-02-26T23:11:39.613Z,100371.00
2023-02-26T23:14:07.468Z,100374.00
2023-02-26T23:16:35.408Z,100372.00
2023-02-26T23:19:03.562Z,100380.00
2023-02-26T23:21:31.942Z,100379.00
2023-02-26T23:24:01.196Z,100380.00
2023-02-26T23:26:29.330Z,100384.00
2023-02-26T23:28:57.367Z,100384.00
2023-02-26T23:31:25.901Z,100381.00
2023-02-26T23:33:54.007Z,100370.00
2023-02-26T23:36:21.996Z,100385.00
2023-02-26T23:38:49.840Z,100384.00
2023-02-26T23:41:19.921Z,100396.00
2023-02-26T23:43:47.769Z,100387.00
2023-02-26T23:46:15.753Z,100395.00
2023-02-26T23:48:43.683Z,100402.00
2023-02-26T23:51:11.597Z,100392.00
2023-02-26T23:53:39.501Z,100399.00
2023-02-26T23:56:08.529Z,100404.00
2023-02-26T23:58:37.704Z,100404.00
